Weather at Île Sainte-Marguerite Airport

Public forecast

Using degrees Celsius for public forecast. Weather courtesy of forecast.io.

Closest aviation weather report (METAR) to Île Sainte-Marguerite Airport

Closest report is Quebec Jean Lesage International Airport, 34.6 nm (64.2 km) WSW.

2024/07/21 03:00 (retrieved 22 minutes ago)

CYQB 210300Z 27004KT 230V030 15SM FEW060 17/15 A2995 RMK SC1 SC TR SLP144 DENSITY ALT 500FT

Closest aviation forecast (TAF) to Île Sainte-Marguerite Airport

Forecast is more than 12 hours old.

Closest forecast is C J.H.L.(Joe) Lecomte) Heliport, 36.8 nm (68.1 km) WSW.

2024/07/19 18:21 Ammendment (retrieved 1 day ago)

TAF AMD TAF AMD CYOY 191918Z 1918/2006 CNL RMK END OF FLY PROGRAM NXT FCST BY 200000Z